sensor_id;sensor_type;location;lat;lon;timestamp;pressure;altitude;pressure_sealevel;temperature;humidity
28310;BME280;15571;50.974;13.936;2022-10-04T00:02:26;100702.78;;;13.61;100.00
28310;BME280;15571;50.974;13.936;2022-10-04T00:05:32;100694.00;;;13.62;100.00
28310;BME280;15571;50.974;13.936;2022-10-04T00:08:39;100693.09;;;13.63;100.00
28310;BME280;15571;50.974;13.936;2022-10-04T00:11:45;100701.00;;;13.63;100.00
28310;BME280;15571;50.974;13.936;2022-10-04T00:14:56;100704.50;;;13.62;100.00
28310;BME280;15571;50.974;13.936;2022-10-04T00:18:13;100702.78;;;13.61;100.00
28310;BME280;15571;50.974;13.936;2022-10-04T00:22:08;100706.31;;;13.60;100.00
28310;BME280;15571;50.974;13.936;2022-10-04T00:25:16;100706.34;;;13.53;100.00
28310;BME280;15571;50.974;13.936;2022-10-04T00:28:43;100701.97;;;13.56;100.00
28310;BME280;15571;50.974;13.936;2022-10-04T00:35:49;100694.06;;;13.56;100.00
28310;BME280;15571;50.974;13.936;2022-10-04T00:42:43;100696.69;;;13.56;100.00
28310;BME280;15571;50.974;13.936;2022-10-04T00:45:51;100701.09;;;13.55;100.00
28310;BME280;15571;50.974;13.936;2022-10-04T00:48:59;100690.56;;;13.53;100.00
28310;BME280;15571;50.974;13.936;2022-10-04T00:52:08;100691.47;;;13.52;100.00
28310;BME280;15571;50.974;13.936;2022-10-04T00:55:24;100694.94;;;13.54;100.00
28310;BME280;15571;50.974;13.936;2022-10-04T00:58:31;100685.38;;;13.50;100.00
28310;BME280;15571;50.974;13.936;2022-10-04T01:01:37;100697.66;;;13.48;100.00
28310;BME280;15571;50.974;13.936;2022-10-04T01:04:42;100688.03;;;13.46;100.00
28310;BME280;15571;50.974;13.936;2022-10-04T01:07:50;100688.91;;;13.46;100.00
28310;BME280;15571;50.974;13.936;2022-10-04T01:11:00;100681.97;;;13.39;100.00
28310;BME280;15571;50.974;13.936;2022-10-04T01:14:12;100692.44;;;13.42;100.00
28310;BME280;15571;50.974;13.936;2022-10-04T01:17:22;100695.03;;;13.45;100.00
28310;BME280;15571;50.974;13.936;2022-10-04T01:20:32;100680.19;;;13.41;100.00
28310;BME280;15571;50.974;13.936;2022-10-04T01:23:42;100683.66;;;13.45;100.00
28310;BME280;15571;50.974;13.936;2022-10-04T01:26:45;100677.50;;;13.47;100.00
28310;BME280;15571;50.974;13.936;2022-10-04T01:29:48;100674.88;;;13.47;100.00
28310;BME280;15571;50.974;13.936;2022-10-04T01:32:51;100681.00;;;13.46;100.00
28310;BME280;15571;50.974;13.936;2022-10-04T01:35:54;100676.63;;;13.48;100.00
28310;BME280;15571;50.974;13.936;2022-10-04T01:38:59;100678.34;;;13.49;100.00
28310;BME280;15571;50.974;13.936;2022-10-04T01:42:08;100679.28;;;13.47;100.00
28310;BME280;15571;50.974;13.936;2022-10-04T01:45:18;100674.03;;;13.44;100.00
28310;BME280;15571;50.974;13.936;2022-10-04T01:49:00;100668.78;;;13.44;100.00
28310;BME280;15571;50.974;13.936;2022-10-04T01:52:08;100674.00;;;13.47;100.00
28310;BME280;15571;50.974;13.936;2022-10-04T01:55:19;100676.72;;;13.39;100.00
28310;BME280;15571;50.974;13.936;2022-10-04T01:58:29;100674.06;;;13.41;100.00
28310;BME280;15571;50.974;13.936;2022-10-04T02:01:39;100678.47;;;13.40;100.00
28310;BME280;15571;50.974;13.936;2022-10-04T02:04:49;100671.44;;;13.39;100.00
28310;BME280;15571;50.974;13.936;2022-10-04T02:07:54;100673.19;;;13.40;100.00
28310;BME280;15571;50.974;13.936;2022-10-04T02:11:04;100667.06;;;13.36;100.00
28310;BME280;15571;50.974;13.936;2022-10-04T02:14:12;100667.03;;;13.39;100.00
28310;BME280;15571;50.974;13.936;2022-10-04T02:17:18;100671.41;;;13.37;100.00
28310;BME280;15571;50.974;13.936;2022-10-04T02:20:24;100668.81;;;13.36;100.00
28310;BME280;15571;50.974;13.936;2022-10-04T02:23:28;100670.56;;;13.34;100.00
28310;BME280;15571;50.974;13.936;2022-10-04T02:26:32;100669.75;;;13.32;100.00
28310;BME280;15571;50.974;13.936;2022-10-04T02:29:35;100672.31;;;13.36;100.00
28310;BME280;15571;50.974;13.936;2022-10-04T02:32:45;100671.44;;;13.36;100.00
28310;BME280;15571;50.974;13.936;2022-10-04T02:36:01;100661.81;;;13.33;100.00
28310;BME280;15571;50.974;13.936;2022-10-04T02:39:09;100660.91;;;13.36;100.00
28310;BME280;15571;50.974;13.936;2022-10-04T02:42:21;100657.41;;;13.37;100.00
28310;BME280;15571;50.974;13.936;2022-10-04T02:45:37;100652.16;;;13.37;100.00
28310;BME280;15571;50.974;13.936;2022-10-04T02:48:44;100651.25;;;13.38;100.00
28310;BME280;15571;50.974;13.936;2022-10-04T02:51:51;100653.91;;;13.41;100.00
28310;BME280;15571;50.974;13.936;2022-10-04T02:54:59;100659.16;;;13.38;100.00
28310;BME280;15571;50.974;13.936;2022-10-04T02:58:08;100649.50;;;13.38;100.00
28310;BME280;15571;50.974;13.936;2022-10-04T03:01:22;100643.41;;;13.35;100.00
28310;BME280;15571;50.974;13.936;2022-10-04T03:04:28;100653.03;;;13.36;100.00
28310;BME280;15571;50.974;13.936;2022-10-04T03:07:34;100641.69;;;13.31;100.00
28310;BME280;15571;50.974;13.936;2022-10-04T03:10:38;100641.69;;;13.31;100.00
28310;BME280;15571;50.974;13.936;2022-10-04T03:13:47;100645.16;;;13.33;100.00
28310;BME280;15571;50.974;13.936;2022-10-04T03:16:52;100642.59;;;13.30;100.00
28310;BME280;15571;50.974;13.936;2022-10-04T03:19:56;100650.50;;;13.23;100.00
28310;BME280;15571;50.974;13.936;2022-10-04T03:22:58;100646.09;;;13.29;100.00
28310;BME280;15571;50.974;13.936;2022-10-04T03:26:16;100647.88;;;13.27;100.00
28310;BME280;15571;50.974;13.936;2022-10-04T03:29:23;100645.25;;;13.23;100.00
28310;BME280;15571;50.974;13.936;2022-10-04T03:32:28;100643.50;;;13.27;100.00
28310;BME280;15571;50.974;13.936;2022-10-04T03:35:33;100641.81;;;13.18;100.00
28310;BME280;15571;50.974;13.936;2022-10-04T03:38:36;100647.00;;;13.24;100.00
28310;BME280;15571;50.974;13.936;2022-10-04T03:41:41;100647.03;;;13.20;100.00
28310;BME280;15571;50.974;13.936;2022-10-04T03:44:48;100647.03;;;13.23;100.00
28310;BME280;15571;50.974;13.936;2022-10-04T03:47:52;100655.78;;;13.23;100.00
28310;BME280;15571;50.974;13.936;2022-10-04T03:50:57;100641.75;;;13.24;100.00
28310;BME280;15571;50.974;13.936;2022-10-04T03:54:01;100651.44;;;13.19;100.00
28310;BME280;15571;50.974;13.936;2022-10-04T03:57:11;100640.06;;;13.17;100.00
28310;BME280;15571;50.974;13.936;2022-10-04T04:00:19;100648.84;;;13.16;100.00
28310;BME280;15571;50.974;13.936;2022-10-04T04:03:24;100647.03;;;13.20;100.00
28310;BME280;15571;50.974;13.936;2022-10-04T04:06:36;100648.84;;;13.13;100.00
28310;BME280;15571;50.974;13.936;2022-10-04T04:09:44;100660.25;;;13.17;100.00
28310;BME280;15571;50.974;13.936;2022-10-04T04:12:55;100661.09;;;13.17;100.00
28310;BME280;15571;50.974;13.936;2022-10-04T04:16:01;100666.34;;;13.20;100.00
28310;BME280;15571;50.974;13.936;2022-10-04T04:19:11;100661.09;;;13.17;100.00
28310;BME280;15571;50.974;13.936;2022-10-04T04:22:16;100663.72;;;13.17;100.00
28310;BME280;15571;50.974;13.936;2022-10-04T04:25:23;100666.41;;;13.11;100.00
28310;BME280;15571;50.974;13.936;2022-10-04T04:28:31;100664.63;;;13.13;100.00
28310;BME280;15571;50.974;13.936;2022-10-04T04:31:40;100664.63;;;13.15;100.00
28310;BME280;15571;50.974;13.936;2022-10-04T04:34:50;100657.66;;;13.11;100.00
28310;BME280;15571;50.974;13.936;2022-10-04T04:38:05;100669.03;;;13.13;100.00
28310;BME280;15571;50.974;13.936;2022-10-04T04:41:09;100661.13;;;13.14;100.00
28310;BME280;15571;50.974;13.936;2022-10-04T04:44:16;100669.03;;;13.13;100.00
28310;BME280;15571;50.974;13.936;2022-10-04T04:47:26;100670.84;;;13.07;100.00
28310;BME280;15571;50.974;13.936;2022-10-04T04:50:33;100669.94;;;13.07;100.00
28310;BME280;15571;50.974;13.936;2022-10-04T04:53:41;100665.56;;;13.09;100.00
28310;BME280;15571;50.974;13.936;2022-10-04T04:56:46;100666.41;;;13.11;100.00
28310;BME280;15571;50.974;13.936;2022-10-04T04:59:54;100662.94;;;13.09;100.00
28310;BME280;15571;50.974;13.936;2022-10-04T05:03:01;100673.47;;;13.06;100.00
28310;BME280;15571;50.974;13.936;2022-10-04T05:06:23;100667.34;;;13.04;100.00
28310;BME280;15571;50.974;13.936;2022-10-04T05:09:28;100670.00;;;13.01;100.00
28310;BME280;15571;50.974;13.936;2022-10-04T05:12:33;100664.72;;;13.04;100.00
28310;BME280;15571;50.974;13.936;2022-10-04T05:15:41;100680.47;;;13.07;100.00
28310;BME280;15571;50.974;13.936;2022-10-04T05:18:46;100681.31;;;13.09;100.00
28310;BME280;15571;50.974;13.936;2022-10-04T05:22:06;100679.56;;;13.11;100.00
28310;BME280;15571;50.974;13.936;2022-10-04T05:25:15;100689.22;;;13.06;100.00
28310;BME280;15571;50.974;13.936;2022-10-04T05:28:20;100688.31;;;13.08;100.00
28310;BME280;15571;50.974;13.936;2022-10-04T05:31:35;100694.47;;;13.09;100.00
28310;BME280;15571;50.974;13.936;2022-10-04T05:34:42;100694.44;;;13.11;100.00
28310;BME280;15571;50.974;13.936;2022-10-04T05:37:56;100694.47;;;13.09;100.00
28310;BME280;15571;50.974;13.936;2022-10-04T05:41:05;100691.81;;;13.11;100.00
28310;BME280;15571;50.974;13.936;2022-10-04T05:44:30;100698.88;;;13.05;100.00
28310;BME280;15571;50.974;13.936;2022-10-04T05:47:39;100708.50;;;13.08;100.00
28310;BME280;15571;50.974;13.936;2022-10-04T05:50:45;100711.13;;;13.05;100.00
28310;BME280;15571;50.974;13.936;2022-10-04T05:53:48;100713.81;;;13.02;100.00
28310;BME280;15571;50.974;13.936;2022-10-04T05:57:29;100708.50;;;13.05;100.00
28310;BME280;15571;50.974;13.936;2022-10-04T06:00:38;100711.16;;;13.06;100.00
28310;BME280;15571;50.974;13.936;2022-10-04T06:04:03;100713.75;;;13.05;100.00
28310;BME280;15571;50.974;13.936;2022-10-04T06:07:19;100722.53;;;13.05;100.00
28310;BME280;15571;50.974;13.936;2022-10-04T06:14:27;100717.28;;;13.05;100.00
28310;BME280;15571;50.974;13.936;2022-10-04T06:17:54;100722.50;;;13.10;100.00
28310;BME280;15571;50.974;13.936;2022-10-04T06:21:17;100727.75;;;13.10;100.00
28310;BME280;15571;50.974;13.936;2022-10-04T06:24:23;100731.25;;;13.12;100.00
28310;BME280;15571;50.974;13.936;2022-10-04T06:27:31;100723.38;;;13.12;100.00
28310;BME280;15571;50.974;13.936;2022-10-04T06:34:37;100737.31;;;13.19;100.00
28310;BME280;15571;50.974;13.936;2022-10-04T06:38:09;100732.91;;;13.21;100.00
28310;BME280;15571;50.974;13.936;2022-10-04T06:41:35;100738.16;;;13.21;100.00
28310;BME280;15571;50.974;13.936;2022-10-04T06:52:00;100743.38;;;13.26;100.00
28310;BME280;15571;50.974;13.936;2022-10-04T06:55:31;100748.66;;;13.24;100.00
28310;BME280;15571;50.974;13.936;2022-10-04T06:59:07;100750.41;;;13.27;100.00
28310;BME280;15571;50.974;13.936;2022-10-04T07:02:22;100753.00;;;13.31;100.00
28310;BME280;15571;50.974;13.936;2022-10-04T07:05:31;100758.22;;;13.34;100.00
28310;BME280;15571;50.974;13.936;2022-10-04T07:08:43;100755.56;;;13.36;100.00
28310;BME280;15571;50.974;13.936;2022-10-04T07:11:52;100759.06;;;13.38;100.00
28310;BME280;15571;50.974;13.936;2022-10-04T07:15:00;100755.59;;;13.39;100.00
28310;BME280;15571;50.974;13.936;2022-10-04T07:18:07;100759.09;;;13.41;100.00
28310;BME280;15571;50.974;13.936;2022-10-04T07:21:15;100761.66;;;13.44;100.00
28310;BME280;15571;50.974;13.936;2022-10-04T07:24:23;100765.19;;;13.45;100.00
28310;BME280;15571;50.974;13.936;2022-10-04T07:27:32;100764.28;;;13.47;100.00
28310;BME280;15571;50.974;13.936;2022-10-04T07:30:40;100760.75;;;13.51;100.00
28310;BME280;15571;50.974;13.936;2022-10-04T07:33:47;100763.34;;;13.53;100.00
28310;BME280;15571;50.974;13.936;2022-10-04T07:36:56;100768.59;;;13.54;100.00
28310;BME280;15571;50.974;13.936;2022-10-04T07:40:04;100765.97;;;13.54;100.00
28310;BME280;15571;50.974;13.936;2022-10-04T07:43:11;100766.81;;;13.58;100.00
28310;BME280;15571;50.974;13.936;2022-10-04T07:46:34;100767.66;;;13.62;100.00
28310;BME280;15571;50.974;13.936;2022-10-04T07:49:40;100775.53;;;13.65;100.00
28310;BME280;15571;50.974;13.936;2022-10-04T07:52:49;100779.81;;;13.72;100.00
28310;BME280;15571;50.974;13.936;2022-10-04T07:55:56;100781.53;;;13.79;100.00
28310;BME280;15571;50.974;13.936;2022-10-04T07:59:19;100770.16;;;13.77;100.00
28310;BME280;15571;50.974;13.936;2022-10-04T08:02:36;100779.69;;;13.88;100.00
28310;BME280;15571;50.974;13.936;2022-10-04T08:05:47;100784.94;;;13.91;100.00
28310;BME280;15571;50.974;13.936;2022-10-04T08:09:20;100778.72;;;13.95;100.00
28310;BME280;15571;50.974;13.936;2022-10-04T08:12:28;100774.41;;;13.91;100.00
28310;BME280;15571;50.974;13.936;2022-10-04T08:15:36;100777.00;;;13.95;100.00
28310;BME280;15571;50.974;13.936;2022-10-04T08:18:47;100786.69;;;13.90;100.00
28310;BME280;15571;50.974;13.936;2022-10-04T08:21:59;100787.44;;;14.01;100.00
28310;BME280;15571;50.974;13.936;2022-10-04T08:25:12;100782.16;;;14.03;100.00
28310;BME280;15571;50.974;13.936;2022-10-04T08:28:24;100794.34;;;14.12;100.00
28310;BME280;15571;50.974;13.936;2022-10-04T08:31:55;100797.00;;;14.10;100.00
28310;BME280;15571;50.974;13.936;2022-10-04T08:35:33;100793.41;;;14.18;100.00
28310;BME280;15571;50.974;13.936;2022-10-04T08:38:45;100806.50;;;14.24;100.00
28310;BME280;15571;50.974;13.936;2022-10-04T08:42:04;100798.53;;;14.30;100.00
28310;BME280;15571;50.974;13.936;2022-10-04T08:53:01;100810.66;;;14.43;100.00
28310;BME280;15571;50.974;13.936;2022-10-04T08:56:09;100805.38;;;14.43;100.00
28310;BME280;15571;50.974;13.936;2022-10-04T09:03:19;100804.41;;;14.52;100.00
28310;BME280;15571;50.974;13.936;2022-10-04T09:06:42;100808.75;;;14.58;100.00
28310;BME280;15571;50.974;13.936;2022-10-04T09:13:40;100810.50;;;14.56;100.00
28310;BME280;15571;50.974;13.936;2022-10-04T09:16:48;100796.44;;;14.58;100.00
28310;BME280;15571;50.974;13.936;2022-10-04T09:20:02;100808.66;;;14.64;100.00
28310;BME280;15571;50.974;13.936;2022-10-04T09:23:34;100803.41;;;14.61;100.00
28310;BME280;15571;50.974;13.936;2022-10-04T09:26:46;100805.16;;;14.63;100.00
28310;BME280;15571;50.974;13.936;2022-10-04T09:30:05;100806.00;;;14.69;100.00
28310;BME280;15571;50.974;13.936;2022-10-04T09:33:44;100802.38;;;14.77;100.00
28310;BME280;15571;50.974;13.936;2022-10-04T09:37:00;100796.25;;;14.75;100.00
28310;BME280;15571;50.974;13.936;2022-10-04T09:40:33;100792.66;;;14.79;100.00
28310;BME280;15571;50.974;13.936;2022-10-04T09:44:17;100790.97;;;14.75;100.00
28310;BME280;15571;50.974;13.936;2022-10-04T09:47:42;100798.84;;;14.78;100.00
28310;BME280;15571;50.974;13.936;2022-10-04T09:54:45;100796.00;;;14.91;100.00
28310;BME280;15571;50.974;13.936;2022-10-04T10:01:26;100803.00;;;14.95;100.00
28310;BME280;15571;50.974;13.936;2022-10-04T10:04:42;100801.13;;;15.03;100.00
28310;BME280;15571;50.974;13.936;2022-10-04T10:07:57;100808.09;;;15.06;100.00
28310;BME280;15571;50.974;13.936;2022-10-04T10:11:09;100799.34;;;15.04;100.00
28310;BME280;15571;50.974;13.936;2022-10-04T10:15:01;100805.41;;;15.10;100.00
28310;BME280;15571;50.974;13.936;2022-10-04T10:18:17;100811.47;;;15.17;100.00
28310;BME280;15571;50.974;13.936;2022-10-04T10:21:39;100812.31;;;15.19;100.00
28310;BME280;15571;50.974;13.936;2022-10-04T10:25:04;100814.91;;;15.21;100.00
28310;BME280;15571;50.974;13.936;2022-10-04T10:28:32;100808.09;;;15.07;100.00
28310;BME280;15571;50.974;13.936;2022-10-04T10:32:17;100810.59;;;15.17;100.00
28310;BME280;15571;50.974;13.936;2022-10-04T10:35:39;100817.56;;;15.22;100.00
28310;BME280;15571;50.974;13.936;2022-10-04T10:38:57;100813.03;;;15.29;100.00
28310;BME280;15571;50.974;13.936;2022-10-04T10:42:18;100815.66;;;15.31;100.00
28310;BME280;15571;50.974;13.936;2022-10-04T10:45:41;100815.50;;;15.38;100.00
28310;BME280;15571;50.974;13.936;2022-10-04T10:49:03;100823.44;;;15.38;100.00
28310;BME280;15571;50.974;13.936;2022-10-04T10:52:52;100809.34;;;15.39;100.00
28310;BME280;15571;50.974;13.936;2022-10-04T11:00:17;100822.34;;;15.52;100.00
28310;BME280;15571;50.974;13.936;2022-10-04T11:03:38;100812.59;;;15.57;100.00
28310;BME280;15571;50.974;13.936;2022-10-04T11:07:15;100807.16;;;15.66;100.00
28310;BME280;15571;50.974;13.936;2022-10-04T11:14:45;100805.19;;;15.78;100.00
28310;BME280;15571;50.974;13.936;2022-10-04T11:25:37;100796.94;;;15.98;100.00
28310;BME280;15571;50.974;13.936;2022-10-04T11:28:50;100796.00;;;16.00;100.00
28310;BME280;15571;50.974;13.936;2022-10-04T11:32:02;100787.16;;;16.05;100.00
28310;BME280;15571;50.974;13.936;2022-10-04T11:35:42;100788.91;;;16.04;100.00
28310;BME280;15571;50.974;13.936;2022-10-04T11:39:03;100786.25;;;16.06;100.00
28310;BME280;15571;50.974;13.936;2022-10-04T11:42:20;100787.16;;;16.05;100.00
28310;BME280;15571;50.974;13.936;2022-10-04T11:56:29;100776.31;;;16.18;100.00
28310;BME280;15571;50.974;13.936;2022-10-04T11:59:44;100774.53;;;16.21;100.00
28310;BME280;15571;50.974;13.936;2022-10-04T12:03:14;100777.06;;;16.24;100.00
28310;BME280;15571;50.974;13.936;2022-10-04T12:06:35;100766.47;;;16.27;100.00
28310;BME280;15571;50.974;13.936;2022-10-04T12:09:46;100776.03;;;16.32;100.00
28310;BME280;15571;50.974;13.936;2022-10-04T12:13:09;100775.09;;;16.35;100.00
28310;BME280;15571;50.974;13.936;2022-10-04T12:16:42;100761.03;;;16.34;100.00
28310;BME280;15571;50.974;13.936;2022-10-04T12:23:51;100760.28;;;16.26;100.00
28310;BME280;15571;50.974;13.936;2022-10-04T12:27:26;100751.41;;;16.30;100.00
28310;BME280;15571;50.974;13.936;2022-10-04T12:30:42;100748.78;;;16.30;100.00
28310;BME280;15571;50.974;13.936;2022-10-04T12:34:03;100746.09;;;16.32;100.00
28310;BME280;15571;50.974;13.936;2022-10-04T22:37:38;100756.38;;;11.55;100.00
28310;BME280;15571;50.974;13.936;2022-10-04T22:40:42;100752.03;;;11.55;100.00
28310;BME280;15571;50.974;13.936;2022-10-04T22:43:45;100751.16;;;11.53;100.00
28310;BME280;15571;50.974;13.936;2022-10-04T22:46:51;100738.03;;;11.50;100.00
28310;BME280;15571;50.974;13.936;2022-10-04T22:49:54;100709.19;;;11.47;100.00
28310;BME280;15571;50.974;13.936;2022-10-04T22:53:10;100711.84;;;11.44;100.00
28310;BME280;15571;50.974;13.936;2022-10-04T22:56:14;100715.34;;;11.41;100.00
28310;BME280;15571;50.974;13.936;2022-10-04T22:59:19;100703.09;;;11.37;100.00
28310;BME280;15571;50.974;13.936;2022-10-04T23:02:24;100693.47;;;11.37;100.00
28310;BME280;15571;50.974;13.936;2022-10-04T23:05:27;100686.50;;;11.36;100.00
28310;BME280;15571;50.974;13.936;2022-10-04T23:08:32;100676.03;;;11.33;100.00
28310;BME280;15571;50.974;13.936;2022-10-04T23:11:35;100668.16;;;11.33;100.00
28310;BME280;15571;50.974;13.936;2022-10-04T23:14:39;100662.06;;;11.31;100.00
28310;BME280;15571;50.974;13.936;2022-10-04T23:17:42;100661.19;;;11.32;100.00
28310;BME280;15571;50.974;13.936;2022-10-04T23:20:48;100662.91;;;11.32;100.00
28310;BME280;15571;50.974;13.936;2022-10-04T23:24:03;100661.16;;;11.29;100.00
28310;BME280;15571;50.974;13.936;2022-10-04T23:27:14;100667.31;;;11.25;100.00
28310;BME280;15571;50.974;13.936;2022-10-04T23:30:19;100662.94;;;11.24;100.00
28310;BME280;15571;50.974;13.936;2022-10-04T23:33:23;100652.47;;;11.24;100.00
28310;BME280;15571;50.974;13.936;2022-10-04T23:36:26;100645.47;;;11.25;100.00
28310;BME280;15571;50.974;13.936;2022-10-04T23:39:32;100641.97;;;11.24;100.00
28310;BME280;15571;50.974;13.936;2022-10-04T23:42:39;100646.34;;;11.22;100.00
28310;BME280;15571;50.974;13.936;2022-10-04T23:45:47;100636.72;;;11.23;100.00
28310;BME280;15571;50.974;13.936;2022-10-04T23:48:50;100645.47;;;11.23;100.00
28310;BME280;15571;50.974;13.936;2022-10-04T23:51:56;100640.22;;;11.25;100.00
28310;BME280;15571;50.974;13.936;2022-10-04T23:55:06;100636.72;;;11.23;100.00
28310;BME280;15571;50.974;13.936;2022-10-04T23:58:16;100633.25;;;11.17;100.00
